sensor_id;sensor_type;location;lat;lon;timestamp;P1;durP1;ratioP1;P2;durP2;ratioP2
24547;SDS011;12713;51.624;4.924;2023-04-15T00:01:41;7.25;;;4.50;;
24547;SDS011;12713;51.624;4.924;2023-04-15T00:04:07;9.73;;;4.57;;
24547;SDS011;12713;51.624;4.924;2023-04-15T00:06:33;8.63;;;4.70;;
24547;SDS011;12713;51.624;4.924;2023-04-15T00:08:59;9.25;;;4.75;;
24547;SDS011;12713;51.624;4.924;2023-04-15T00:11:25;8.25;;;4.43;;
24547;SDS011;12713;51.624;4.924;2023-04-15T00:13:51;9.00;;;4.50;;
24547;SDS011;12713;51.624;4.924;2023-04-15T00:16:17;6.97;;;4.00;;
24547;SDS011;12713;51.624;4.924;2023-04-15T00:18:43;8.30;;;5.00;;
24547;SDS011;12713;51.624;4.924;2023-04-15T00:21:09;10.45;;;5.00;;
24547;SDS011;12713;51.624;4.924;2023-04-15T00:23:35;8.63;;;5.38;;
24547;SDS011;12713;51.624;4.924;2023-04-15T00:26:01;10.63;;;4.78;;
24547;SDS011;12713;51.624;4.924;2023-04-15T00:28:27;6.07;;;4.55;;
24547;SDS011;12713;51.624;4.924;2023-04-15T00:30:55;7.40;;;5.05;;
24547;SDS011;12713;51.624;4.924;2023-04-15T00:33:21;11.50;;;4.55;;
24547;SDS011;12713;51.624;4.924;2023-04-15T00:35:47;10.63;;;5.10;;
24547;SDS011;12713;51.624;4.924;2023-04-15T00:38:13;8.20;;;4.78;;
24547;SDS011;12713;51.624;4.924;2023-04-15T00:40:39;9.48;;;4.93;;
24547;SDS011;12713;51.624;4.924;2023-04-15T00:43:06;11.52;;;5.22;;
24547;SDS011;12713;51.624;4.924;2023-04-15T00:45:32;8.68;;;5.25;;
24547;SDS011;12713;51.624;4.924;2023-04-15T00:47:58;8.50;;;4.78;;
24547;SDS011;12713;51.624;4.924;2023-04-15T00:50:24;8.13;;;5.53;;
24547;SDS011;12713;51.624;4.924;2023-04-15T00:52:50;8.15;;;5.13;;
24547;SDS011;12713;51.624;4.924;2023-04-15T00:55:16;7.60;;;4.53;;
24547;SDS011;12713;51.624;4.924;2023-04-15T00:57:43;8.45;;;5.07;;
24547;SDS011;12713;51.624;4.924;2023-04-15T01:00:09;8.30;;;5.35;;
24547;SDS011;12713;51.624;4.924;2023-04-15T01:02:36;12.27;;;5.43;;
24547;SDS011;12713;51.624;4.924;2023-04-15T01:05:03;12.40;;;5.45;;
24547;SDS011;12713;51.624;4.924;2023-04-15T01:07:29;12.07;;;5.75;;
24547;SDS011;12713;51.624;4.924;2023-04-15T01:09:55;8.40;;;4.93;;
24547;SDS011;12713;51.624;4.924;2023-04-15T01:12:22;10.35;;;5.60;;
24547;SDS011;12713;51.624;4.924;2023-04-15T01:14:49;10.10;;;5.40;;
24547;SDS011;12713;51.624;4.924;2023-04-15T01:17:15;12.23;;;6.07;;
24547;SDS011;12713;51.624;4.924;2023-04-15T01:19:42;11.50;;;5.70;;
24547;SDS011;12713;51.624;4.924;2023-04-15T01:22:08;10.73;;;7.07;;
24547;SDS011;12713;51.624;4.924;2023-04-15T01:24:34;11.73;;;5.47;;
24547;SDS011;12713;51.624;4.924;2023-04-15T01:27:00;8.27;;;5.28;;
24547;SDS011;12713;51.624;4.924;2023-04-15T01:29:27;10.13;;;5.32;;
24547;SDS011;12713;51.624;4.924;2023-04-15T01:31:54;13.25;;;6.88;;
24547;SDS011;12713;51.624;4.924;2023-04-15T01:34:21;10.93;;;5.85;;
24547;SDS011;12713;51.624;4.924;2023-04-15T01:36:47;11.27;;;5.80;;
24547;SDS011;12713;51.624;4.924;2023-04-15T01:39:13;13.20;;;6.32;;
24547;SDS011;12713;51.624;4.924;2023-04-15T01:41:39;13.27;;;7.43;;
24547;SDS011;12713;51.624;4.924;2023-04-15T01:44:06;9.88;;;6.30;;
24547;SDS011;12713;51.624;4.924;2023-04-15T01:46:32;10.30;;;6.40;;
24547;SDS011;12713;51.624;4.924;2023-04-15T01:48:59;12.25;;;6.95;;
24547;SDS011;12713;51.624;4.924;2023-04-15T01:51:25;9.82;;;6.82;;
24547;SDS011;12713;51.624;4.924;2023-04-15T01:53:51;13.70;;;6.18;;
24547;SDS011;12713;51.624;4.924;2023-04-15T01:56:17;10.38;;;6.18;;
24547;SDS011;12713;51.624;4.924;2023-04-15T01:58:43;11.32;;;6.47;;
24547;SDS011;12713;51.624;4.924;2023-04-15T02:01:10;15.25;;;5.88;;
24547;SDS011;12713;51.624;4.924;2023-04-15T02:03:37;13.02;;;7.18;;
24547;SDS011;12713;51.624;4.924;2023-04-15T02:06:03;12.48;;;7.57;;
24547;SDS011;12713;51.624;4.924;2023-04-15T02:08:30;14.20;;;7.72;;
24547;SDS011;12713;51.624;4.924;2023-04-15T02:10:56;12.15;;;6.47;;
24547;SDS011;12713;51.624;4.924;2023-04-15T02:13:22;11.50;;;7.03;;
24547;SDS011;12713;51.624;4.924;2023-04-15T02:15:48;12.57;;;7.00;;
24547;SDS011;12713;51.624;4.924;2023-04-15T02:18:16;12.00;;;6.93;;
24547;SDS011;12713;51.624;4.924;2023-04-15T02:20:42;13.75;;;7.57;;
24547;SDS011;12713;51.624;4.924;2023-04-15T02:23:08;7.88;;;5.78;;
24547;SDS011;12713;51.624;4.924;2023-04-15T02:25:35;13.80;;;7.03;;
24547;SDS011;12713;51.624;4.924;2023-04-15T02:28:02;10.13;;;7.00;;
24547;SDS011;12713;51.624;4.924;2023-04-15T02:30:28;11.68;;;6.45;;
24547;SDS011;12713;51.624;4.924;2023-04-15T02:32:54;10.73;;;6.15;;
24547;SDS011;12713;51.624;4.924;2023-04-15T02:35:20;14.00;;;7.25;;
24547;SDS011;12713;51.624;4.924;2023-04-15T02:37:46;13.27;;;7.63;;
24547;SDS011;12713;51.624;4.924;2023-04-15T02:40:12;10.07;;;6.22;;
24547;SDS011;12713;51.624;4.924;2023-04-15T02:42:39;11.93;;;6.38;;
24547;SDS011;12713;51.624;4.924;2023-04-15T02:45:05;10.75;;;8.23;;
24547;SDS011;12713;51.624;4.924;2023-04-15T02:47:32;11.50;;;7.63;;
24547;SDS011;12713;51.624;4.924;2023-04-15T02:49:58;12.63;;;7.10;;
24547;SDS011;12713;51.624;4.924;2023-04-15T02:52:26;12.40;;;7.80;;
24547;SDS011;12713;51.624;4.924;2023-04-15T02:54:52;14.93;;;7.28;;
24547;SDS011;12713;51.624;4.924;2023-04-15T02:57:21;12.52;;;6.72;;
24547;SDS011;12713;51.624;4.924;2023-04-15T02:59:47;11.20;;;7.05;;
24547;SDS011;12713;51.624;4.924;2023-04-15T03:02:13;10.00;;;6.82;;
24547;SDS011;12713;51.624;4.924;2023-04-15T03:04:40;16.45;;;8.90;;
24547;SDS011;12713;51.624;4.924;2023-04-15T03:07:06;12.75;;;6.80;;
24547;SDS011;12713;51.624;4.924;2023-04-15T03:09:35;9.20;;;6.40;;
24547;SDS011;12713;51.624;4.924;2023-04-15T03:12:01;12.90;;;7.55;;
24547;SDS011;12713;51.624;4.924;2023-04-15T03:14:27;11.70;;;7.20;;
24547;SDS011;12713;51.624;4.924;2023-04-15T03:16:53;14.88;;;7.28;;
24547;SDS011;12713;51.624;4.924;2023-04-15T03:19:20;12.75;;;7.53;;
24547;SDS011;12713;51.624;4.924;2023-04-15T03:21:46;14.70;;;9.30;;
24547;SDS011;12713;51.624;4.924;2023-04-15T03:24:12;9.02;;;7.00;;
24547;SDS011;12713;51.624;4.924;2023-04-15T03:26:37;11.88;;;7.88;;
24547;SDS011;12713;51.624;4.924;2023-04-15T03:29:04;14.88;;;9.32;;
24547;SDS011;12713;51.624;4.924;2023-04-15T03:31:30;16.75;;;8.68;;
24547;SDS011;12713;51.624;4.924;2023-04-15T03:33:56;11.13;;;8.80;;
24547;SDS011;12713;51.624;4.924;2023-04-15T03:36:22;13.52;;;7.45;;
24547;SDS011;12713;51.624;4.924;2023-04-15T03:38:48;10.48;;;8.10;;
24547;SDS011;12713;51.624;4.924;2023-04-15T03:41:14;14.35;;;8.40;;
24547;SDS011;12713;51.624;4.924;2023-04-15T03:43:40;18.77;;;9.20;;
24547;SDS011;12713;51.624;4.924;2023-04-15T03:46:06;14.82;;;7.13;;
24547;SDS011;12713;51.624;4.924;2023-04-15T03:48:32;16.40;;;9.00;;
24547;SDS011;12713;51.624;4.924;2023-04-15T03:50:58;10.77;;;8.02;;
24547;SDS011;12713;51.624;4.924;2023-04-15T03:53:24;12.20;;;7.88;;
24547;SDS011;12713;51.624;4.924;2023-04-15T03:55:50;11.25;;;7.50;;
24547;SDS011;12713;51.624;4.924;2023-04-15T03:58:16;11.45;;;6.80;;
24547;SDS011;12713;51.624;4.924;2023-04-15T04:00:42;10.13;;;6.53;;
24547;SDS011;12713;51.624;4.924;2023-04-15T04:03:08;10.85;;;7.50;;
24547;SDS011;12713;51.624;4.924;2023-04-15T04:05:35;17.45;;;8.82;;
24547;SDS011;12713;51.624;4.924;2023-04-15T04:08:03;13.02;;;8.13;;
24547;SDS011;12713;51.624;4.924;2023-04-15T04:10:29;13.48;;;9.02;;
24547;SDS011;12713;51.624;4.924;2023-04-15T04:12:55;11.80;;;7.78;;
24547;SDS011;12713;51.624;4.924;2023-04-15T04:15:21;11.18;;;7.38;;
24547;SDS011;12713;51.624;4.924;2023-04-15T04:17:47;15.90;;;9.93;;
24547;SDS011;12713;51.624;4.924;2023-04-15T04:20:13;9.95;;;7.07;;
24547;SDS011;12713;51.624;4.924;2023-04-15T04:22:39;14.90;;;9.13;;
24547;SDS011;12713;51.624;4.924;2023-04-15T04:25:06;14.07;;;9.00;;
24547;SDS011;12713;51.624;4.924;2023-04-15T04:27:32;10.57;;;7.43;;
24547;SDS011;12713;51.624;4.924;2023-04-15T04:29:58;12.10;;;9.55;;
24547;SDS011;12713;51.624;4.924;2023-04-15T04:32:24;13.77;;;9.55;;
24547;SDS011;12713;51.624;4.924;2023-04-15T04:34:51;11.98;;;9.60;;
24547;SDS011;12713;51.624;4.924;2023-04-15T04:37:17;13.00;;;10.48;;
24547;SDS011;12713;51.624;4.924;2023-04-15T04:39:43;11.65;;;9.23;;
24547;SDS011;12713;51.624;4.924;2023-04-15T04:42:08;14.77;;;10.77;;
24547;SDS011;12713;51.624;4.924;2023-04-15T04:44:35;14.52;;;9.73;;
24547;SDS011;12713;51.624;4.924;2023-04-15T04:47:01;15.55;;;10.02;;
24547;SDS011;12713;51.624;4.924;2023-04-15T04:49:27;16.08;;;9.98;;
24547;SDS011;12713;51.624;4.924;2023-04-15T04:51:53;17.65;;;10.35;;
24547;SDS011;12713;51.624;4.924;2023-04-15T04:54:19;13.70;;;10.13;;
24547;SDS011;12713;51.624;4.924;2023-04-15T04:56:45;12.93;;;10.95;;
24547;SDS011;12713;51.624;4.924;2023-04-15T04:59:11;17.67;;;11.70;;
24547;SDS011;12713;51.624;4.924;2023-04-15T05:01:38;13.68;;;9.73;;
24547;SDS011;12713;51.624;4.924;2023-04-15T05:04:04;12.80;;;9.75;;
24547;SDS011;12713;51.624;4.924;2023-04-15T05:06:31;12.48;;;9.63;;
24547;SDS011;12713;51.624;4.924;2023-04-15T05:08:57;11.43;;;8.95;;
24547;SDS011;12713;51.624;4.924;2023-04-15T05:11:23;19.65;;;11.95;;
24547;SDS011;12713;51.624;4.924;2023-04-15T05:13:50;15.50;;;10.15;;
24547;SDS011;12713;51.624;4.924;2023-04-15T05:16:16;14.13;;;11.15;;
24547;SDS011;12713;51.624;4.924;2023-04-15T05:18:42;17.67;;;11.75;;
24547;SDS011;12713;51.624;4.924;2023-04-15T05:21:08;15.48;;;10.07;;
24547;SDS011;12713;51.624;4.924;2023-04-15T05:23:34;20.08;;;11.98;;
24547;SDS011;12713;51.624;4.924;2023-04-15T05:26:00;15.85;;;10.50;;
24547;SDS011;12713;51.624;4.924;2023-04-15T05:28:26;16.17;;;11.65;;
24547;SDS011;12713;51.624;4.924;2023-04-15T05:30:52;13.98;;;11.52;;
24547;SDS011;12713;51.624;4.924;2023-04-15T05:33:18;12.45;;;10.05;;
24547;SDS011;12713;51.624;4.924;2023-04-15T05:35:45;13.80;;;10.68;;
24547;SDS011;12713;51.624;4.924;2023-04-15T05:38:11;15.57;;;11.13;;
24547;SDS011;12713;51.624;4.924;2023-04-15T05:40:37;14.80;;;10.52;;
24547;SDS011;12713;51.624;4.924;2023-04-15T05:43:03;16.10;;;10.38;;
24547;SDS011;12713;51.624;4.924;2023-04-15T05:45:29;16.67;;;11.05;;
24547;SDS011;12713;51.624;4.924;2023-04-15T05:47:55;16.80;;;10.57;;
24547;SDS011;12713;51.624;4.924;2023-04-15T05:50:21;16.83;;;10.55;;
24547;SDS011;12713;51.624;4.924;2023-04-15T05:52:47;14.88;;;10.32;;
24547;SDS011;12713;51.624;4.924;2023-04-15T05:55:13;14.48;;;10.25;;
24547;SDS011;12713;51.624;4.924;2023-04-15T05:57:39;12.63;;;10.18;;
24547;SDS011;12713;51.624;4.924;2023-04-15T06:00:06;18.17;;;11.52;;
24547;SDS011;12713;51.624;4.924;2023-04-15T06:02:32;17.40;;;11.80;;
24547;SDS011;12713;51.624;4.924;2023-04-15T06:04:58;15.82;;;11.50;;
24547;SDS011;12713;51.624;4.924;2023-04-15T06:07:24;19.35;;;12.35;;
24547;SDS011;12713;51.624;4.924;2023-04-15T06:09:50;16.63;;;10.70;;
24547;SDS011;12713;51.624;4.924;2023-04-15T06:12:22;15.40;;;11.20;;
24547;SDS011;12713;51.624;4.924;2023-04-15T06:14:48;19.25;;;12.43;;
24547;SDS011;12713;51.624;4.924;2023-04-15T06:17:15;13.27;;;9.82;;
24547;SDS011;12713;51.624;4.924;2023-04-15T06:19:42;16.85;;;11.02;;
24547;SDS011;12713;51.624;4.924;2023-04-15T06:22:08;14.85;;;11.38;;
24547;SDS011;12713;51.624;4.924;2023-04-15T06:24:34;16.33;;;10.57;;
24547;SDS011;12713;51.624;4.924;2023-04-15T06:27:01;16.33;;;11.48;;
24547;SDS011;12713;51.624;4.924;2023-04-15T06:29:27;12.27;;;9.65;;
24547;SDS011;12713;51.624;4.924;2023-04-15T06:31:53;13.05;;;10.23;;
24547;SDS011;12713;51.624;4.924;2023-04-15T06:34:20;16.05;;;10.65;;
24547;SDS011;12713;51.624;4.924;2023-04-15T06:36:46;15.80;;;10.80;;
24547;SDS011;12713;51.624;4.924;2023-04-15T06:39:12;16.50;;;11.07;;
24547;SDS011;12713;51.624;4.924;2023-04-15T06:41:38;15.95;;;11.25;;
24547;SDS011;12713;51.624;4.924;2023-04-15T06:44:04;16.33;;;10.82;;
24547;SDS011;12713;51.624;4.924;2023-04-15T06:46:31;16.40;;;10.38;;
24547;SDS011;12713;51.624;4.924;2023-04-15T06:48:57;14.90;;;10.60;;
24547;SDS011;12713;51.624;4.924;2023-04-15T06:51:23;14.43;;;10.65;;
24547;SDS011;12713;51.624;4.924;2023-04-15T06:53:49;16.67;;;10.80;;
24547;SDS011;12713;51.624;4.924;2023-04-15T06:56:15;16.45;;;10.57;;
24547;SDS011;12713;51.624;4.924;2023-04-15T06:58:41;12.70;;;10.05;;
24547;SDS011;12713;51.624;4.924;2023-04-15T07:01:07;13.48;;;9.73;;
24547;SDS011;12713;51.624;4.924;2023-04-15T07:03:33;15.32;;;10.98;;
24547;SDS011;12713;51.624;4.924;2023-04-15T07:05:59;12.93;;;10.25;;
24547;SDS011;12713;51.624;4.924;2023-04-15T07:08:25;12.93;;;9.57;;
24547;SDS011;12713;51.624;4.924;2023-04-15T07:10:51;14.77;;;9.60;;
24547;SDS011;12713;51.624;4.924;2023-04-15T07:13:18;14.05;;;10.05;;
24547;SDS011;12713;51.624;4.924;2023-04-15T07:15:44;11.93;;;9.60;;
24547;SDS011;12713;51.624;4.924;2023-04-15T07:18:10;15.35;;;10.43;;
24547;SDS011;12713;51.624;4.924;2023-04-15T07:20:36;16.75;;;9.75;;
24547;SDS011;12713;51.624;4.924;2023-04-15T07:23:02;11.88;;;9.60;;
24547;SDS011;12713;51.624;4.924;2023-04-15T07:25:28;13.50;;;10.40;;
24547;SDS011;12713;51.624;4.924;2023-04-15T07:27:54;14.00;;;10.20;;
24547;SDS011;12713;51.624;4.924;2023-04-15T07:30:21;12.13;;;9.73;;
24547;SDS011;12713;51.624;4.924;2023-04-15T07:32:48;12.30;;;9.65;;
24547;SDS011;12713;51.624;4.924;2023-04-15T07:35:14;14.75;;;9.90;;
24547;SDS011;12713;51.624;4.924;2023-04-15T07:37:40;13.00;;;9.10;;
24547;SDS011;12713;51.624;4.924;2023-04-15T07:40:07;13.05;;;8.77;;
24547;SDS011;12713;51.624;4.924;2023-04-15T07:42:34;10.10;;;8.43;;
24547;SDS011;12713;51.624;4.924;2023-04-15T07:45:00;10.90;;;8.43;;
24547;SDS011;12713;51.624;4.924;2023-04-15T07:47:26;14.63;;;8.73;;
24547;SDS011;12713;51.624;4.924;2023-04-15T07:49:52;13.75;;;9.32;;
24547;SDS011;12713;51.624;4.924;2023-04-15T07:52:18;16.85;;;9.13;;
24547;SDS011;12713;51.624;4.924;2023-04-15T07:54:44;13.60;;;8.93;;
24547;SDS011;12713;51.624;4.924;2023-04-15T07:57:10;12.95;;;9.10;;
24547;SDS011;12713;51.624;4.924;2023-04-15T07:59:36;10.30;;;8.05;;
24547;SDS011;12713;51.624;4.924;2023-04-15T08:02:02;13.30;;;8.90;;
24547;SDS011;12713;51.624;4.924;2023-04-15T08:04:28;12.43;;;8.43;;
24547;SDS011;12713;51.624;4.924;2023-04-15T08:06:55;9.43;;;8.07;;
24547;SDS011;12713;51.624;4.924;2023-04-15T08:09:22;12.70;;;8.27;;
24547;SDS011;12713;51.624;4.924;2023-04-15T08:11:48;11.00;;;8.30;;
24547;SDS011;12713;51.624;4.924;2023-04-15T08:14:15;14.32;;;8.98;;
24547;SDS011;12713;51.624;4.924;2023-04-15T08:16:41;16.23;;;8.75;;
24547;SDS011;12713;51.624;4.924;2023-04-15T08:19:07;10.88;;;8.32;;
24547;SDS011;12713;51.624;4.924;2023-04-15T08:21:33;9.05;;;8.00;;
24547;SDS011;12713;51.624;4.924;2023-04-15T08:23:59;11.95;;;7.20;;
24547;SDS011;12713;51.624;4.924;2023-04-15T08:26:25;10.88;;;6.97;;
24547;SDS011;12713;51.624;4.924;2023-04-15T08:28:51;9.13;;;6.30;;
24547;SDS011;12713;51.624;4.924;2023-04-15T08:31:17;9.65;;;7.80;;
24547;SDS011;12713;51.624;4.924;2023-04-15T08:33:46;8.88;;;6.97;;
24547;SDS011;12713;51.624;4.924;2023-04-15T08:39:17;12.07;;;8.05;;
24547;SDS011;12713;51.624;4.924;2023-04-15T08:41:50;8.85;;;6.85;;
24547;SDS011;12713;51.624;4.924;2023-04-15T08:44:17;10.15;;;7.60;;
24547;SDS011;12713;51.624;4.924;2023-04-15T08:46:47;9.57;;;7.22;;
24547;SDS011;12713;51.624;4.924;2023-04-15T08:49:13;11.75;;;8.00;;
24547;SDS011;12713;51.624;4.924;2023-04-15T08:51:43;8.60;;;7.07;;
24547;SDS011;12713;51.624;4.924;2023-04-15T08:54:12;13.60;;;7.90;;
24547;SDS011;12713;51.624;4.924;2023-04-15T08:56:39;12.02;;;8.13;;
24547;SDS011;12713;51.624;4.924;2023-04-15T08:59:05;10.02;;;7.88;;
24547;SDS011;12713;51.624;4.924;2023-04-15T09:01:32;10.77;;;8.63;;
24547;SDS011;12713;51.624;4.924;2023-04-15T09:03:58;11.82;;;8.65;;
24547;SDS011;12713;51.624;4.924;2023-04-15T09:06:25;11.43;;;9.23;;
24547;SDS011;12713;51.624;4.924;2023-04-15T09:08:51;12.82;;;9.43;;
24547;SDS011;12713;51.624;4.924;2023-04-15T09:11:20;13.30;;;8.32;;
24547;SDS011;12713;51.624;4.924;2023-04-15T09:13:47;11.20;;;8.23;;
24547;SDS011;12713;51.624;4.924;2023-04-15T09:16:14;10.57;;;8.05;;
24547;SDS011;12713;51.624;4.924;2023-04-15T09:18:40;13.02;;;8.35;;
24547;SDS011;12713;51.624;4.924;2023-04-15T09:21:07;11.77;;;7.75;;
24547;SDS011;12713;51.624;4.924;2023-04-15T09:26:32;11.23;;;6.97;;
24547;SDS011;12713;51.624;4.924;2023-04-15T09:29:09;11.23;;;6.47;;
24547;SDS011;12713;51.624;4.924;2023-04-15T09:31:38;9.82;;;6.88;;
24547;SDS011;12713;51.624;4.924;2023-04-15T09:34:04;9.85;;;6.72;;
24547;SDS011;12713;51.624;4.924;2023-04-15T09:39:08;12.40;;;6.70;;
24547;SDS011;12713;51.624;4.924;2023-04-15T09:41:35;18.27;;;5.90;;
24547;SDS011;12713;51.624;4.924;2023-04-15T09:44:01;10.82;;;6.47;;
24547;SDS011;12713;51.624;4.924;2023-04-15T09:46:43;8.95;;;5.40;;
24547;SDS011;12713;51.624;4.924;2023-04-15T09:49:10;6.65;;;5.38;;
24547;SDS011;12713;51.624;4.924;2023-04-15T09:51:37;6.93;;;4.78;;
24547;SDS011;12713;51.624;4.924;2023-04-15T09:54:18;7.13;;;4.70;;
24547;SDS011;12713;51.624;4.924;2023-04-15T09:56:47;5.65;;;4.45;;
24547;SDS011;12713;51.624;4.924;2023-04-15T09:59:13;7.40;;;4.28;;
24547;SDS011;12713;51.624;4.924;2023-04-15T10:01:43;5.60;;;4.38;;
24547;SDS011;12713;51.624;4.924;2023-04-15T10:04:09;16.30;;;4.40;;
24547;SDS011;12713;51.624;4.924;2023-04-15T10:06:36;5.18;;;4.15;;
24547;SDS011;12713;51.624;4.924;2023-04-15T10:09:02;7.47;;;5.25;;
24547;SDS011;12713;51.624;4.924;2023-04-15T10:11:28;5.65;;;4.70;;
24547;SDS011;12713;51.624;4.924;2023-04-15T10:13:55;5.85;;;4.13;;
24547;SDS011;12713;51.624;4.924;2023-04-15T10:16:22;7.53;;;3.88;;
24547;SDS011;12713;51.624;4.924;2023-04-15T10:18:52;5.80;;;4.30;;
24547;SDS011;12713;51.624;4.924;2023-04-15T10:21:19;8.05;;;4.88;;
24547;SDS011;12713;51.624;4.924;2023-04-15T10:23:47;6.90;;;4.40;;
24547;SDS011;12713;51.624;4.924;2023-04-15T10:26:14;5.78;;;4.55;;
24547;SDS011;12713;51.624;4.924;2023-04-15T10:28:41;4.25;;;3.85;;
24547;SDS011;12713;51.624;4.924;2023-04-15T10:31:07;6.32;;;3.38;;
24547;SDS011;12713;51.624;4.924;2023-04-15T10:33:33;5.63;;;3.15;;
24547;SDS011;12713;51.624;4.924;2023-04-15T10:36:00;6.40;;;3.20;;
24547;SDS011;12713;51.624;4.924;2023-04-15T10:38:30;5.65;;;3.10;;
24547;SDS011;12713;51.624;4.924;2023-04-15T10:46:18;4.93;;;2.90;;
24547;SDS011;12713;51.624;4.924;2023-04-15T10:48:51;4.88;;;2.63;;
24547;SDS011;12713;51.624;4.924;2023-04-15T10:51:30;6.35;;;3.08;;
24547;SDS011;12713;51.624;4.924;2023-04-15T10:53:57;4.00;;;2.30;;
24547;SDS011;12713;51.624;4.924;2023-04-15T10:56:23;5.07;;;2.47;;
24547;SDS011;12713;51.624;4.924;2023-04-15T10:58:50;6.07;;;2.70;;
24547;SDS011;12713;51.624;4.924;2023-04-15T11:01:18;5.63;;;2.53;;
24547;SDS011;12713;51.624;4.924;2023-04-15T11:03:44;3.45;;;2.30;;
24547;SDS011;12713;51.624;4.924;2023-04-15T11:06:10;4.82;;;2.30;;
24547;SDS011;12713;51.624;4.924;2023-04-15T11:08:55;6.05;;;2.15;;
24547;SDS011;12713;51.624;4.924;2023-04-15T11:11:23;3.95;;;2.40;;
24547;SDS011;12713;51.624;4.924;2023-04-15T11:14:13;4.47;;;2.65;;
24547;SDS011;12713;51.624;4.924;2023-04-15T11:16:43;5.28;;;2.65;;
24547;SDS011;12713;51.624;4.924;2023-04-15T11:19:09;3.13;;;2.10;;
24547;SDS011;12713;51.624;4.924;2023-04-15T11:21:35;3.25;;;1.98;;
24547;SDS011;12713;51.624;4.924;2023-04-15T11:24:01;3.63;;;1.83;;
24547;SDS011;12713;51.624;4.924;2023-04-15T11:26:28;2.97;;;1.42;;
24547;SDS011;12713;51.624;4.924;2023-04-15T11:28:54;3.72;;;1.88;;
24547;SDS011;12713;51.624;4.924;2023-04-15T11:31:20;3.67;;;1.67;;
24547;SDS011;12713;51.624;4.924;2023-04-15T11:36:16;3.60;;;1.65;;
24547;SDS011;12713;51.624;4.924;2023-04-15T11:38:43;2.67;;;1.77;;
24547;SDS011;12713;51.624;4.924;2023-04-15T11:41:10;2.85;;;1.58;;
24547;SDS011;12713;51.624;4.924;2023-04-15T11:43:36;3.28;;;1.80;;
24547;SDS011;12713;51.624;4.924;2023-04-15T11:46:02;4.28;;;2.22;;
24547;SDS011;12713;51.624;4.924;2023-04-15T11:48:29;6.40;;;2.10;;
24547;SDS011;12713;51.624;4.924;2023-04-15T11:50:57;5.22;;;2.30;;
24547;SDS011;12713;51.624;4.924;2023-04-15T11:53:23;5.15;;;2.80;;
24547;SDS011;12713;51.624;4.924;2023-04-15T11:55:53;4.50;;;2.55;;
24547;SDS011;12713;51.624;4.924;2023-04-15T11:58:24;5.70;;;2.92;;
24547;SDS011;12713;51.624;4.924;2023-04-15T12:00:53;3.45;;;2.55;;
24547;SDS011;12713;51.624;4.924;2023-04-15T12:03:21;3.88;;;2.38;;
24547;SDS011;12713;51.624;4.924;2023-04-15T12:11:17;5.38;;;2.30;;
24547;SDS011;12713;51.624;4.924;2023-04-15T12:13:47;3.85;;;2.20;;
24547;SDS011;12713;51.624;4.924;2023-04-15T12:16:17;4.40;;;2.17;;
24547;SDS011;12713;51.624;4.924;2023-04-15T12:18:50;5.55;;;2.20;;
24547;SDS011;12713;51.624;4.924;2023-04-15T12:21:18;3.80;;;2.35;;
24547;SDS011;12713;51.624;4.924;2023-04-15T12:23:50;5.10;;;2.60;;
24547;SDS011;12713;51.624;4.924;2023-04-15T12:28:43;4.43;;;2.40;;
24547;SDS011;12713;51.624;4.924;2023-04-15T12:31:09;3.28;;;2.33;;
24547;SDS011;12713;51.624;4.924;2023-04-15T12:33:37;5.68;;;3.10;;
24547;SDS011;12713;51.624;4.924;2023-04-15T12:36:03;5.00;;;2.80;;
24547;SDS011;12713;51.624;4.924;2023-04-15T12:38:30;8.43;;;2.97;;
24547;SDS011;12713;51.624;4.924;2023-04-15T12:40:57;5.80;;;2.88;;
24547;SDS011;12713;51.624;4.924;2023-04-15T12:43:23;9.65;;;3.20;;
24547;SDS011;12713;51.624;4.924;2023-04-15T12:45:50;5.40;;;2.80;;
24547;SDS011;12713;51.624;4.924;2023-04-15T12:48:16;8.20;;;3.42;;
24547;SDS011;12713;51.624;4.924;2023-04-15T12:50:42;4.90;;;2.85;;
24547;SDS011;12713;51.624;4.924;2023-04-15T12:53:08;5.30;;;3.20;;
24547;SDS011;12713;51.624;4.924;2023-04-15T12:55:34;4.85;;;2.30;;
24547;SDS011;12713;51.624;4.924;2023-04-15T12:58:00;3.03;;;2.50;;
24547;SDS011;12713;51.624;4.924;2023-04-15T13:00:26;3.85;;;2.35;;
24547;SDS011;12713;51.624;4.924;2023-04-15T13:02:53;4.72;;;2.45;;
24547;SDS011;12713;51.624;4.924;2023-04-15T13:05:19;2.92;;;2.45;;
24547;SDS011;12713;51.624;4.924;2023-04-15T13:07:45;3.72;;;2.30;;
24547;SDS011;12713;51.624;4.924;2023-04-15T13:10:13;3.80;;;1.83;;
24547;SDS011;12713;51.624;4.924;2023-04-15T13:12:39;3.97;;;1.70;;
24547;SDS011;12713;51.624;4.924;2023-04-15T13:15:05;2.75;;;1.40;;
24547;SDS011;12713;51.624;4.924;2023-04-15T13:17:34;2.97;;;1.67;;
24547;SDS011;12713;51.624;4.924;2023-04-15T13:20:03;4.20;;;1.50;;
24547;SDS011;12713;51.624;4.924;2023-04-15T13:22:29;3.45;;;1.10;;
24547;SDS011;12713;51.624;4.924;2023-04-15T13:24:55;2.58;;;1.10;;
24547;SDS011;12713;51.624;4.924;2023-04-15T13:27:21;2.30;;;1.20;;
24547;SDS011;12713;51.624;4.924;2023-04-15T13:29:48;5.93;;;1.80;;
24547;SDS011;12713;51.624;4.924;2023-04-15T13:32:14;4.03;;;1.98;;
24547;SDS011;12713;51.624;4.924;2023-04-15T13:34:40;2.40;;;1.50;;
24547;SDS011;12713;51.624;4.924;2023-04-15T13:37:06;2.22;;;1.48;;
24547;SDS011;12713;51.624;4.924;2023-04-15T13:39:32;4.68;;;2.25;;
24547;SDS011;12713;51.624;4.924;2023-04-15T13:41:58;2.08;;;1.42;;
24547;SDS011;12713;51.624;4.924;2023-04-15T13:44:24;3.53;;;1.63;;
24547;SDS011;12713;51.624;4.924;2023-04-15T13:46:51;2.45;;;1.95;;
24547;SDS011;12713;51.624;4.924;2023-04-15T13:49:17;2.50;;;1.80;;
24547;SDS011;12713;51.624;4.924;2023-04-15T13:51:43;2.67;;;1.80;;
24547;SDS011;12713;51.624;4.924;2023-04-15T13:54:09;5.35;;;1.88;;
24547;SDS011;12713;51.624;4.924;2023-04-15T13:56:35;2.70;;;2.13;;
24547;SDS011;12713;51.624;4.924;2023-04-15T13:59:01;6.75;;;1.80;;
24547;SDS011;12713;51.624;4.924;2023-04-15T14:01:28;5.45;;;1.90;;
24547;SDS011;12713;51.624;4.924;2023-04-15T14:03:54;3.15;;;1.70;;
24547;SDS011;12713;51.624;4.924;2023-04-15T14:06:20;4.13;;;1.92;;
24547;SDS011;12713;51.624;4.924;2023-04-15T14:08:46;4.15;;;2.08;;
24547;SDS011;12713;51.624;4.924;2023-04-15T14:11:12;2.00;;;1.52;;
24547;SDS011;12713;51.624;4.924;2023-04-15T14:13:38;2.38;;;1.33;;
24547;SDS011;12713;51.624;4.924;2023-04-15T14:16:04;2.75;;;1.40;;
24547;SDS011;12713;51.624;4.924;2023-04-15T14:18:31;3.72;;;1.30;;
24547;SDS011;12713;51.624;4.924;2023-04-15T14:20:57;4.13;;;1.38;;
24547;SDS011;12713;51.624;4.924;2023-04-15T14:23:23;2.72;;;1.20;;
24547;SDS011;12713;51.624;4.924;2023-04-15T14:25:50;2.67;;;1.23;;
24547;SDS011;12713;51.624;4.924;2023-04-15T14:28:16;2.13;;;1.20;;
24547;SDS011;12713;51.624;4.924;2023-04-15T14:30:42;5.38;;;1.52;;
24547;SDS011;12713;51.624;4.924;2023-04-15T14:33:08;1.45;;;1.05;;
24547;SDS011;12713;51.624;4.924;2023-04-15T14:35:34;2.25;;;1.08;;
24547;SDS011;12713;51.624;4.924;2023-04-15T14:38:00;4.20;;;1.60;;
24547;SDS011;12713;51.624;4.924;2023-04-15T14:40:26;7.75;;;1.30;;
24547;SDS011;12713;51.624;4.924;2023-04-15T14:42:52;2.35;;;1.30;;
24547;SDS011;12713;51.624;4.924;2023-04-15T14:45:18;2.25;;;1.40;;
24547;SDS011;12713;51.624;4.924;2023-04-15T14:47:45;2.03;;;1.45;;
24547;SDS011;12713;51.624;4.924;2023-04-15T14:50:11;2.85;;;1.40;;
24547;SDS011;12713;51.624;4.924;2023-04-15T14:52:37;4.15;;;1.35;;
24547;SDS011;12713;51.624;4.924;2023-04-15T14:55:07;3.17;;;1.65;;
24547;SDS011;12713;51.624;4.924;2023-04-15T14:57:34;3.80;;;1.48;;
24547;SDS011;12713;51.624;4.924;2023-04-15T15:00:00;1.98;;;1.60;;